createdAt,value
2018-04-24T00:00:51.252Z,16.67
2018-04-24T00:03:20.360Z,16.85
2018-04-24T00:05:49.480Z,16.89
2018-04-24T00:08:19.376Z,16.96
2018-04-24T00:10:48.601Z,16.87
2018-04-24T00:13:18.460Z,16.95
2018-04-24T00:15:47.579Z,16.98
2018-04-24T00:18:16.730Z,16.84
2018-04-24T00:20:45.847Z,16.74
2018-04-24T00:23:14.998Z,16.70
2018-04-24T00:25:44.885Z,16.64
2018-04-24T00:28:14.574Z,16.65
2018-04-24T00:30:43.712Z,16.60
2018-04-24T00:33:12.854Z,16.68
2018-04-24T00:35:41.967Z,16.47
2018-04-24T00:38:11.082Z,16.60
2018-04-24T00:40:40.978Z,16.54
2018-04-24T00:43:10.100Z,16.52
2018-04-24T00:45:40.000Z,16.52
2018-04-24T00:48:09.899Z,16.47
2018-04-24T00:50:39.029Z,16.36
2018-04-24T00:53:25.851Z,16.49
2018-04-24T00:55:54.989Z,16.68
2018-04-24T00:58:24.104Z,16.77
2018-04-24T01:00:54.046Z,16.91
2018-04-24T01:03:23.274Z,16.84
2018-04-24T01:05:52.405Z,16.84
2018-04-24T01:08:22.266Z,16.71
2018-04-24T01:10:51.384Z,16.58
2018-04-24T01:13:20.505Z,16.63
2018-04-24T01:15:50.384Z,16.46
2018-04-24T01:18:20.296Z,16.38
2018-04-24T01:20:49.444Z,16.26
2018-04-24T01:23:18.572Z,16.19
2018-04-24T01:25:47.724Z,16.15
2018-04-24T01:28:17.597Z,16.11
2018-04-24T01:30:46.712Z,16.10
2018-04-24T01:33:15.846Z,16.06
2018-04-24T01:35:44.968Z,16.16
2018-04-24T01:38:14.749Z,16.20
2018-04-24T01:40:44.660Z,16.25
2018-04-24T01:43:14.753Z,16.28
2018-04-24T01:45:44.678Z,16.51
2018-04-24T01:48:14.815Z,16.58
2018-04-24T01:50:43.946Z,16.62
2018-04-24T01:53:13.075Z,16.53
2018-04-24T01:55:42.962Z,16.61
2018-04-24T01:58:12.140Z,16.67
2018-04-24T02:00:41.270Z,16.61
2018-04-24T02:03:11.170Z,16.54
2018-04-24T02:05:40.296Z,16.43
2018-04-24T02:08:09.428Z,16.44
2018-04-24T02:10:38.676Z,16.47
2018-04-24T02:13:07.785Z,16.41
2018-04-24T02:15:36.908Z,16.52
2018-04-24T02:18:06.018Z,16.42
2018-04-24T02:20:35.220Z,16.32
2018-04-24T02:23:04.324Z,16.24
2018-04-24T02:25:33.454Z,16.23
2018-04-24T02:28:02.557Z,16.25
2018-04-24T02:30:31.681Z,16.22
2018-04-24T02:33:00.829Z,16.22
2018-04-24T02:35:29.949Z,16.20
2018-04-24T02:37:59.130Z,16.21
2018-04-24T02:40:28.272Z,16.31
2018-04-24T02:42:57.369Z,16.30
2018-04-24T02:45:26.502Z,16.26
2018-04-24T02:47:55.618Z,16.13
2018-04-24T02:50:24.751Z,16.03
2018-04-24T02:52:53.878Z,16.06
2018-04-24T02:55:23.749Z,15.92
2018-04-24T02:57:52.873Z,15.94
2018-04-24T03:00:22.754Z,15.83
2018-04-24T03:02:51.868Z,15.60
2018-04-24T03:05:21.013Z,15.49
2018-04-24T03:07:50.117Z,15.48
2018-04-24T03:10:19.625Z,15.61
2018-04-24T03:12:48.761Z,15.79
2018-04-24T03:15:17.885Z,15.69
2018-04-24T03:17:47.040Z,15.74
2018-04-24T03:20:16.165Z,15.77
2018-04-24T03:22:46.066Z,15.89
2018-04-24T03:25:15.963Z,15.77
2018-04-24T03:27:45.099Z,15.76
2018-04-24T03:30:15.896Z,15.75
2018-04-24T03:32:45.815Z,15.74
2018-04-24T03:35:15.032Z,15.75
2018-04-24T03:37:44.177Z,15.70
2018-04-24T03:40:13.327Z,15.61
2018-04-24T03:42:42.456Z,15.53
2018-04-24T03:45:11.593Z,15.60
2018-04-24T03:47:40.719Z,15.67
2018-04-24T03:50:09.869Z,15.64
2018-04-24T03:52:39.008Z,15.67
2018-04-24T03:55:08.117Z,15.63
2018-04-24T03:57:37.254Z,15.59
2018-04-24T04:00:06.361Z,15.58
2018-04-24T04:02:36.265Z,15.59
2018-04-24T04:05:05.374Z,15.63
2018-04-24T04:07:35.340Z,15.69
2018-04-24T04:10:05.185Z,15.61
2018-04-24T04:12:34.341Z,15.70
2018-04-24T04:15:03.512Z,15.68
2018-04-24T04:17:50.188Z,15.72
2018-04-24T04:20:37.690Z,15.81
2018-04-24T04:23:24.441Z,15.88
2018-04-24T04:25:53.566Z,15.86
2018-04-24T04:28:22.677Z,15.86
2018-04-24T04:30:51.784Z,15.81
2018-04-24T04:33:20.930Z,15.70
2018-04-24T04:35:50.064Z,15.58
2018-04-24T04:38:19.266Z,15.48
2018-04-24T04:40:48.389Z,15.44
2018-04-24T04:43:18.365Z,15.40
2018-04-24T04:45:47.522Z,15.44
2018-04-24T04:48:16.637Z,15.44
2018-04-24T04:50:45.770Z,15.55
2018-04-24T04:53:16.116Z,15.69
2018-04-24T04:55:45.229Z,15.75
2018-04-24T04:58:15.389Z,15.65
2018-04-24T05:00:44.523Z,15.70
2018-04-24T05:03:15.684Z,15.78
2018-04-24T05:05:44.802Z,15.75
2018-04-24T05:08:15.164Z,15.95
2018-04-24T05:10:45.074Z,15.99
2018-04-24T05:13:16.120Z,16.10
2018-04-24T05:15:46.016Z,16.15
2018-04-24T05:18:15.380Z,16.19
2018-04-24T05:20:44.521Z,16.17
2018-04-24T05:23:15.649Z,16.19
2018-04-24T05:25:44.829Z,16.15
2018-04-24T05:28:15.945Z,16.08
2018-04-24T05:30:45.081Z,16.09
2018-04-24T05:35:50.614Z,16.10
2018-04-24T05:38:19.723Z,16.03
2018-04-24T05:40:48.865Z,15.95
2018-04-24T05:43:18.024Z,15.93
2018-04-24T05:45:47.156Z,15.97
2018-04-24T05:48:16.266Z,16.17
2018-04-24T05:50:46.160Z,16.31
2018-04-24T05:53:15.385Z,16.40
2018-04-24T05:55:44.523Z,16.48
2018-04-24T05:58:15.684Z,16.57
2018-04-24T06:00:44.825Z,16.64
2018-04-24T06:03:15.199Z,16.67
2018-04-24T06:05:45.100Z,16.76
2018-04-24T06:08:15.548Z,16.92
2018-04-24T06:10:44.630Z,16.90
2018-04-24T06:13:13.753Z,16.89
2018-04-24T06:15:42.864Z,16.92
2018-04-24T06:18:11.996Z,16.90
2018-04-24T06:20:41.121Z,16.91
2018-04-24T06:23:11.025Z,16.79
2018-04-24T06:25:40.132Z,16.88
2018-04-24T06:28:09.315Z,16.84
2018-04-24T06:30:39.220Z,16.97
2018-04-24T06:33:09.148Z,16.99
2018-04-24T06:35:39.014Z,16.91
2018-04-24T06:38:08.160Z,16.97
2018-04-24T06:40:37.259Z,17.03
2018-04-24T06:43:06.426Z,17.11
2018-04-24T06:45:35.549Z,17.24
2018-04-24T06:48:05.434Z,17.24
2018-04-24T06:50:34.550Z,17.32
2018-04-24T06:53:03.686Z,17.37
2018-04-24T06:55:32.784Z,17.37
2018-04-24T06:58:01.944Z,17.38
2018-04-24T07:00:31.080Z,17.30
2018-04-24T07:03:00.210Z,17.43
2018-04-24T07:05:30.089Z,17.54
2018-04-24T07:07:59.207Z,17.70
2018-04-24T07:10:28.349Z,17.70
2018-04-24T07:12:57.483Z,17.66
2018-04-24T07:15:26.593Z,17.68
2018-04-24T07:17:55.714Z,17.80
2018-04-24T07:20:25.604Z,17.92
2018-04-24T07:22:54.713Z,17.98
2018-04-24T07:25:23.852Z,18.04
2018-04-24T07:27:52.963Z,18.17
2018-04-24T07:30:22.089Z,18.13
2018-04-24T07:32:52.054Z,18.14
2018-04-24T07:35:21.080Z,18.20
2018-04-24T07:37:50.273Z,18.24
2018-04-24T07:40:19.743Z,18.26
2018-04-24T07:42:48.881Z,18.25
2018-04-24T07:45:18.767Z,18.35
2018-04-24T07:47:47.895Z,18.52
2018-04-24T07:50:17.785Z,18.50
2018-04-24T07:52:46.926Z,18.61
2018-04-24T07:55:16.057Z,18.63
2018-04-24T07:57:45.166Z,18.68
2018-04-24T08:00:16.334Z,18.66
2018-04-24T08:02:46.217Z,18.55
2018-04-24T08:05:15.448Z,18.66
2018-04-24T08:07:45.329Z,18.77
2018-04-24T08:10:15.519Z,18.89
2018-04-24T08:12:44.686Z,18.95
2018-04-24T08:15:15.821Z,18.89
2018-04-24T08:17:45.737Z,18.87
2018-04-24T08:20:15.467Z,18.85
2018-04-24T08:22:45.439Z,18.90
2018-04-24T08:25:15.487Z,18.90
2018-04-24T08:27:44.679Z,19.00
2018-04-24T08:30:13.809Z,19.12
2018-04-24T08:32:42.926Z,19.11
2018-04-24T08:35:12.077Z,19.29
2018-04-24T08:37:41.204Z,19.34
2018-04-24T08:40:11.082Z,19.45
2018-04-24T08:42:40.193Z,19.37
2018-04-24T08:45:10.095Z,19.35
2018-04-24T08:47:39.193Z,19.45
2018-04-24T08:50:09.073Z,19.46
2018-04-24T08:52:38.972Z,19.47
2018-04-24T08:55:08.085Z,19.38
2018-04-24T08:57:37.210Z,19.30
2018-04-24T09:00:06.332Z,19.36
2018-04-24T09:02:36.255Z,19.48
2018-04-24T09:05:05.380Z,19.42
2018-04-24T09:07:34.509Z,19.59
2018-04-24T09:10:03.608Z,19.72
2018-04-24T09:12:32.757Z,19.85
2018-04-24T09:15:01.863Z,20.05
2018-04-24T09:17:31.010Z,20.15
2018-04-24T09:20:00.140Z,20.40
2018-04-24T09:22:29.247Z,20.44
2018-04-24T09:24:58.378Z,20.47
2018-04-24T09:27:27.489Z,20.31
2018-04-24T09:30:02.471Z,20.22
2018-04-24T09:32:31.576Z,20.22
2018-04-24T09:35:01.468Z,20.22
2018-04-24T09:37:30.616Z,20.23
2018-04-24T09:39:59.748Z,20.34
2018-04-24T09:42:29.613Z,20.43
2018-04-24T09:44:58.752Z,20.40
2018-04-24T09:47:27.934Z,20.44
2018-04-24T09:49:57.044Z,20.34
2018-04-24T09:52:26.937Z,20.28
2018-04-24T09:54:56.036Z,20.23
2018-04-24T09:57:25.153Z,20.25
2018-04-24T09:59:55.061Z,20.26
2018-04-24T10:02:24.200Z,20.17
2018-04-24T10:04:53.327Z,20.15
2018-04-24T10:07:22.506Z,20.19
2018-04-24T10:09:51.632Z,20.15
2018-04-24T10:12:20.767Z,20.18
2018-04-24T10:14:49.888Z,20.03
2018-04-24T10:17:19.000Z,20.00
2018-04-24T10:19:48.140Z,19.96
2018-04-24T10:22:17.250Z,20.07
2018-04-24T10:24:47.147Z,20.22
2018-04-24T10:27:16.280Z,20.42
2018-04-24T10:29:45.400Z,20.54
2018-04-24T10:32:15.584Z,20.46
2018-04-24T10:34:44.689Z,20.49
2018-04-24T10:37:13.821Z,20.48
2018-04-24T10:39:43.008Z,20.53
2018-04-24T10:42:12.163Z,20.47
2018-04-24T10:44:42.036Z,20.42
2018-04-24T10:47:11.154Z,20.54
2018-04-24T10:49:41.041Z,20.72
2018-04-24T10:52:10.177Z,20.80
2018-04-24T10:54:39.363Z,20.77
2018-04-24T10:57:08.467Z,20.73
2018-04-24T10:59:37.603Z,20.67
2018-04-24T11:02:07.560Z,20.71
2018-04-24T11:04:36.729Z,20.89
2018-04-24T11:07:05.863Z,21.00
2018-04-24T11:09:34.997Z,21.09
2018-04-24T11:12:04.120Z,21.16
2018-04-24T11:14:33.249Z,21.33
2018-04-24T11:17:03.175Z,21.35
2018-04-24T11:19:32.285Z,21.31
2018-04-24T11:22:01.451Z,21.26
2018-04-24T11:24:30.555Z,21.36
2018-04-24T11:26:59.682Z,21.35
2018-04-24T11:29:28.844Z,21.37
2018-04-24T11:31:57.981Z,21.52
2018-04-24T11:34:27.160Z,21.74
2018-04-24T11:36:57.012Z,21.80
2018-04-24T11:39:26.135Z,21.85
2018-04-24T11:41:55.250Z,21.97
2018-04-24T11:44:24.361Z,21.85
2018-04-24T11:46:53.485Z,21.92
2018-04-24T11:49:22.612Z,21.91
2018-04-24T11:51:51.820Z,21.99
2018-04-24T11:54:20.956Z,21.96
2018-04-24T11:56:50.040Z,22.04
2018-04-24T11:59:19.161Z,22.08
2018-04-24T12:01:49.096Z,22.14
2018-04-24T12:04:19.036Z,22.08
2018-04-24T12:06:48.148Z,22.19
2018-04-24T12:09:17.325Z,22.44
2018-04-24T12:11:46.460Z,22.45
2018-04-24T12:14:15.749Z,22.52
2018-04-24T12:16:45.310Z,22.78
2018-04-24T12:19:15.685Z,22.80
2018-04-24T12:21:44.862Z,23.02
2018-04-24T12:24:13.993Z,23.00
2018-04-24T12:26:43.922Z,23.01
2018-04-24T12:29:13.830Z,22.81
2018-04-24T12:31:42.967Z,22.52
2018-04-24T12:34:12.125Z,22.53
2018-04-24T12:36:41.237Z,22.29
2018-04-24T12:39:10.412Z,22.28
2018-04-24T12:41:39.544Z,22.29
2018-04-24T12:44:08.729Z,22.33
2018-04-24T12:46:37.898Z,22.58
2018-04-24T12:49:07.764Z,22.71
2018-04-24T12:51:36.948Z,22.66
2018-04-24T12:54:06.081Z,22.69
2018-04-24T12:56:35.194Z,22.89
2018-04-24T12:59:05.145Z,23.13
2018-04-24T13:01:34.234Z,23.14
2018-04-24T13:04:03.386Z,23.26
2018-04-24T13:06:33.295Z,23.53
2018-04-24T13:09:02.393Z,23.64
2018-04-24T13:11:32.333Z,23.71
2018-04-24T13:14:01.462Z,23.51
2018-04-24T13:16:30.594Z,23.59
2018-04-24T13:19:00.480Z,23.60
2018-04-24T13:21:29.607Z,23.61
2018-04-24T13:23:58.762Z,23.75
2018-04-24T13:26:27.854Z,23.85
2018-04-24T13:28:56.960Z,23.92
2018-04-24T13:31:26.100Z,23.84
2018-04-24T13:33:55.231Z,24.05
2018-04-24T13:36:24.380Z,24.18
2018-04-24T13:38:54.260Z,24.08
2018-04-24T13:41:23.374Z,24.00
2018-04-24T13:43:53.234Z,23.74
2018-04-24T13:46:22.364Z,23.51
2018-04-24T13:48:51.549Z,23.59
2018-04-24T13:51:20.678Z,23.37
2018-04-24T13:53:49.790Z,23.34
2018-04-24T13:56:19.732Z,23.20
2018-04-24T13:58:48.887Z,23.31
2018-04-24T14:01:18.770Z,23.60
2018-04-24T14:03:47.976Z,23.48
2018-04-24T14:06:17.874Z,23.73
2018-04-24T14:08:47.013Z,23.95
2018-04-24T14:11:16.150Z,24.03
2018-04-24T14:13:45.299Z,23.99
2018-04-24T14:16:15.654Z,24.20
2018-04-24T14:18:44.800Z,24.37
2018-04-24T14:21:13.913Z,24.21
2018-04-24T14:23:43.825Z,24.11
2018-04-24T14:26:12.956Z,24.04
2018-04-24T14:28:42.104Z,23.85
2018-04-24T14:31:11.276Z,23.79
2018-04-24T14:33:40.411Z,24.02
2018-04-24T14:36:09.546Z,24.08
2018-04-24T14:38:38.661Z,23.95
2018-04-24T14:41:07.764Z,23.94
2018-04-24T14:43:36.926Z,24.07
2018-04-24T14:46:06.048Z,24.15
2018-04-24T14:48:35.181Z,24.46
2018-04-24T14:51:05.101Z,24.67
2018-04-24T14:53:34.991Z,24.46
2018-04-24T14:56:04.121Z,24.19
2018-04-24T14:58:33.243Z,24.64
2018-04-24T15:01:02.362Z,24.70
2018-04-24T15:03:31.514Z,24.63
2018-04-24T15:06:01.557Z,24.76
2018-04-24T15:08:30.713Z,24.82
2018-04-24T15:10:59.866Z,24.50
2018-04-24T15:13:28.993Z,24.59
2018-04-24T15:15:58.139Z,24.83
2018-04-24T15:18:27.317Z,24.84
2018-04-24T15:20:57.298Z,24.52
2018-04-24T15:23:26.427Z,24.41
2018-04-24T15:25:56.343Z,24.67
2018-04-24T15:28:26.260Z,25.00
2018-04-24T15:30:56.066Z,24.77
2018-04-24T15:33:25.992Z,24.81
2018-04-24T15:35:55.089Z,24.95
2018-04-24T15:38:25.013Z,25.18
2018-04-24T15:40:54.147Z,25.14
2018-04-24T15:43:23.284Z,24.92
2018-04-24T15:45:52.901Z,25.19
2018-04-24T15:48:22.081Z,25.35
2018-04-24T15:50:51.294Z,25.62
2018-04-24T15:53:20.424Z,25.72
2018-04-24T15:55:49.655Z,25.74
2018-04-24T15:58:19.540Z,25.67
2018-04-24T16:00:48.663Z,25.70
2018-04-24T16:03:17.821Z,25.42
2018-04-24T16:05:46.940Z,25.28
2018-04-24T16:08:16.828Z,25.10
2018-04-24T16:10:45.937Z,25.30
2018-04-24T16:13:15.864Z,25.39
2018-04-24T16:15:45.007Z,25.17
2018-04-24T16:18:14.146Z,24.87
2018-04-24T16:20:43.301Z,24.79
2018-04-24T16:23:12.425Z,24.71
2018-04-24T16:25:41.590Z,24.60
2018-04-24T16:28:10.716Z,24.65
2018-04-24T16:30:39.850Z,24.60
2018-04-24T16:33:08.976Z,24.20
2018-04-24T16:35:38.121Z,24.60
2018-04-24T16:38:07.778Z,24.39
2018-04-24T16:40:36.912Z,24.30
2018-04-24T16:43:06.823Z,24.24
2018-04-24T16:45:36.717Z,23.97
2018-04-24T16:48:06.650Z,24.02
2018-04-24T16:50:36.540Z,23.85
2018-04-24T16:53:05.691Z,23.87
2018-04-24T16:55:35.570Z,23.90
2018-04-24T16:58:04.722Z,23.85
2018-04-24T17:00:33.908Z,23.81
2018-04-24T17:03:03.884Z,23.85
2018-04-24T17:05:33.779Z,24.10
2018-04-24T17:08:02.968Z,24.16
2018-04-24T17:10:32.137Z,24.26
2018-04-24T17:13:01.250Z,24.31
2018-04-24T17:15:30.409Z,24.68
2018-04-24T17:17:59.525Z,25.46
2018-04-24T17:20:28.676Z,26.02
2018-04-24T17:22:57.797Z,26.13
2018-04-24T17:25:26.966Z,26.22
2018-04-24T17:27:56.861Z,26.14
2018-04-24T17:30:26.100Z,26.12
2018-04-24T17:32:55.239Z,26.36
2018-04-24T17:35:25.188Z,25.90
2018-04-24T17:37:54.343Z,25.54
2018-04-24T17:40:23.487Z,25.13
2018-04-24T17:42:52.772Z,24.79
2018-04-24T17:45:21.921Z,24.45
2018-04-24T17:47:51.195Z,24.12
2018-04-24T17:50:20.328Z,23.84
2018-04-24T17:52:49.542Z,23.64
2018-04-24T17:55:19.547Z,23.61
2018-04-24T17:57:49.590Z,23.35
2018-04-24T18:00:18.746Z,23.41
2018-04-24T18:02:47.886Z,23.38
2018-04-24T18:05:17.038Z,23.14
2018-04-24T18:07:46.265Z,23.00
2018-04-24T18:10:16.188Z,22.92
2018-04-24T18:12:45.453Z,22.92
2018-04-24T18:15:14.571Z,22.67
2018-04-24T18:17:43.748Z,22.75
2018-04-24T18:20:13.739Z,22.74
2018-04-24T18:22:42.893Z,22.66
2018-04-24T18:25:12.081Z,22.55
2018-04-24T18:27:41.357Z,22.36
2018-04-24T18:30:11.317Z,22.13
2018-04-24T18:32:41.242Z,21.98
2018-04-24T18:35:10.493Z,21.86
2018-04-24T18:37:39.724Z,21.76
2018-04-24T18:40:09.042Z,21.63
2018-04-24T18:42:39.049Z,21.55
2018-04-24T18:45:08.306Z,21.47
2018-04-24T18:47:37.447Z,21.28
2018-04-24T18:50:06.651Z,21.14
2018-04-24T18:52:35.980Z,20.79
2018-04-24T18:55:05.184Z,20.72
2018-04-24T18:57:35.125Z,20.47
2018-04-24T19:00:05.269Z,20.34
2018-04-24T19:02:34.516Z,20.35
2018-04-24T19:05:03.787Z,20.15
2018-04-24T19:07:32.924Z,20.16
2018-04-24T19:10:02.098Z,20.04
2018-04-24T19:12:31.963Z,19.83
2018-04-24T19:15:01.113Z,19.71
2018-04-24T19:17:30.222Z,19.68
2018-04-24T19:19:59.380Z,19.58
2018-04-24T19:22:30.053Z,19.54
2018-04-24T19:25:04.726Z,19.45
2018-04-24T19:27:33.977Z,19.31
2018-04-24T19:30:03.147Z,19.31
2018-04-24T19:32:32.267Z,19.40
2018-04-24T19:35:01.478Z,19.45
2018-04-24T19:37:31.591Z,19.36
2018-04-24T19:40:07.046Z,19.27
2018-04-24T19:42:36.259Z,19.17
2018-04-24T19:45:05.416Z,19.20
2018-04-24T19:47:34.622Z,19.06
2018-04-24T19:50:09.192Z,18.87
2018-04-24T19:52:39.187Z,18.77
2018-04-24T19:55:13.836Z,18.74
2018-04-24T19:57:43.764Z,18.63
2018-04-24T20:00:13.686Z,18.58
2018-04-24T20:02:42.968Z,18.43
2018-04-24T20:05:12.983Z,18.53
2018-04-24T20:07:42.126Z,18.43
2018-04-24T20:10:11.338Z,18.33
2018-04-24T20:12:40.546Z,18.32
2018-04-24T20:15:09.699Z,18.22
2018-04-24T20:17:38.878Z,18.32
2018-04-24T20:20:08.024Z,18.25
2018-04-24T20:22:37.300Z,18.15
2018-04-24T20:25:06.448Z,18.04
2018-04-24T20:27:35.623Z,18.06
2018-04-24T20:30:04.790Z,17.94
2018-04-24T20:32:33.954Z,17.78
2018-04-24T20:35:03.112Z,17.76
2018-04-24T20:37:32.275Z,17.84
2018-04-24T20:40:01.420Z,17.78
2018-04-24T20:42:31.355Z,17.77
2018-04-24T20:45:00.487Z,17.95
2018-04-24T20:47:29.752Z,17.67
2018-04-24T20:49:59.660Z,17.56
2018-04-24T20:52:28.814Z,17.67
2018-04-24T20:54:58.010Z,17.80
2018-04-24T20:57:27.150Z,17.77
2018-04-24T20:59:56.317Z,17.61
2018-04-24T21:02:26.222Z,17.59
2018-04-24T21:04:55.391Z,17.55
2018-04-24T21:07:24.670Z,17.62
2018-04-24T21:09:53.862Z,17.51
2018-04-24T21:12:23.001Z,17.66
2018-04-24T21:14:52.941Z,17.51
2018-04-24T21:17:22.080Z,17.29
2018-04-24T21:19:52.024Z,17.30
2018-04-24T21:22:21.968Z,17.31
2018-04-24T21:24:51.111Z,17.36
2018-04-24T21:27:20.278Z,17.36
2018-04-24T21:29:49.426Z,17.28
2018-04-24T21:32:19.421Z,17.26
2018-04-24T21:34:48.561Z,17.27
2018-04-24T21:37:17.706Z,17.11
2018-04-24T21:39:46.877Z,17.00
2018-04-24T21:42:16.762Z,17.00
2018-04-24T21:44:45.893Z,17.00
2018-04-24T21:47:15.026Z,16.96
2018-04-24T21:49:44.163Z,16.95
2018-04-24T21:52:13.289Z,17.02
2018-04-24T21:54:42.429Z,17.02
2018-04-24T21:57:11.592Z,16.98
2018-04-24T21:59:40.748Z,16.90
2018-04-24T22:02:09.970Z,16.99
2018-04-24T22:04:39.115Z,16.87
2018-04-24T22:07:08.384Z,16.83
2018-04-24T22:09:37.559Z,16.71
2018-04-24T22:12:06.696Z,16.78
2018-04-24T22:14:35.898Z,16.92
2018-04-24T22:17:05.049Z,17.13
2018-04-24T22:19:34.211Z,17.10
2018-04-24T22:22:03.369Z,17.15
2018-04-24T22:24:32.534Z,17.02
2018-04-24T22:27:01.668Z,16.89
2018-04-24T22:29:30.845Z,16.86
2018-04-24T22:32:00.001Z,16.76
2018-04-24T22:34:29.154Z,16.70
2018-04-24T22:36:59.065Z,16.70
2018-04-24T22:39:28.267Z,16.61
2018-04-24T22:41:57.446Z,16.57
2018-04-24T22:44:27.341Z,16.48
2018-04-24T22:46:56.520Z,16.38
2018-04-24T22:49:26.802Z,16.50
2018-04-24T22:51:55.991Z,16.52
2018-04-24T22:54:25.107Z,16.45
2018-04-24T22:56:54.401Z,16.67
2018-04-24T22:59:23.545Z,16.66
2018-04-24T23:01:53.444Z,16.60
2018-04-24T23:04:22.647Z,16.55
2018-04-24T23:06:52.578Z,16.48
2018-04-24T23:09:22.547Z,16.47
2018-04-24T23:12:09.402Z,16.42
2018-04-24T23:14:56.217Z,16.27
2018-04-24T23:17:43.614Z,16.19
2018-04-24T23:20:16.737Z,16.20
2018-04-24T23:22:46.050Z,16.16
2018-04-24T23:25:15.195Z,16.13
2018-04-24T23:27:44.310Z,16.16
2018-04-24T23:30:14.293Z,16.06
2018-04-24T23:32:43.607Z,16.03
2018-04-24T23:35:13.910Z,16.16
2018-04-24T23:37:43.046Z,16.20
2018-04-24T23:40:12.981Z,16.30
2018-04-24T23:42:42.140Z,16.27
2018-04-24T23:45:12.049Z,16.18
2018-04-24T23:47:41.154Z,16.07
2018-04-24T23:50:10.381Z,15.96
2018-04-24T23:52:39.516Z,15.92
2018-04-24T23:55:08.646Z,15.84
2018-04-24T23:57:38.580Z,15.77
